sensor_id;sensor_type;location;lat;lon;timestamp;temperature;humidity
58582;DHT22;44361;51.476;5.700;2023-04-15T00:02:16;7.60;95.50
58582;DHT22;44361;51.476;5.700;2023-04-15T00:04:44;7.50;95.80
58582;DHT22;44361;51.476;5.700;2023-04-15T00:07:10;7.50;96.00
58582;DHT22;44361;51.476;5.700;2023-04-15T00:09:35;7.40;96.10
58582;DHT22;44361;51.476;5.700;2023-04-15T00:12:01;7.40;96.60
58582;DHT22;44361;51.476;5.700;2023-04-15T00:14:26;7.40;96.60
58582;DHT22;44361;51.476;5.700;2023-04-15T00:16:52;7.30;96.80
58582;DHT22;44361;51.476;5.700;2023-04-15T00:19:20;7.30;97.00
58582;DHT22;44361;51.476;5.700;2023-04-15T00:21:46;7.20;97.20
58582;DHT22;44361;51.476;5.700;2023-04-15T00:24:12;7.20;97.40
58582;DHT22;44361;51.476;5.700;2023-04-15T00:26:38;7.10;97.50
58582;DHT22;44361;51.476;5.700;2023-04-15T00:29:03;7.10;97.80
58582;DHT22;44361;51.476;5.700;2023-04-15T00:31:30;7.00;98.00
58582;DHT22;44361;51.476;5.700;2023-04-15T00:33:56;7.00;98.10
58582;DHT22;44361;51.476;5.700;2023-04-15T00:36:21;7.00;98.10
58582;DHT22;44361;51.476;5.700;2023-04-15T00:38:47;7.00;98.10
58582;DHT22;44361;51.476;5.700;2023-04-15T00:41:13;7.00;98.20
58582;DHT22;44361;51.476;5.700;2023-04-15T00:43:39;6.90;97.90
58582;DHT22;44361;51.476;5.700;2023-04-15T00:46:05;7.00;98.10
58582;DHT22;44361;51.476;5.700;2023-04-15T00:48:31;6.90;97.90
58582;DHT22;44361;51.476;5.700;2023-04-15T00:50:58;6.90;97.90
58582;DHT22;44361;51.476;5.700;2023-04-15T00:53:23;6.90;97.90
58582;DHT22;44361;51.476;5.700;2023-04-15T00:55:49;6.80;98.00
58582;DHT22;44361;51.476;5.700;2023-04-15T00:58:15;6.80;97.90
58582;DHT22;44361;51.476;5.700;2023-04-15T01:00:42;6.80;98.20
58582;DHT22;44361;51.476;5.700;2023-04-15T01:03:08;6.80;98.10
58582;DHT22;44361;51.476;5.700;2023-04-15T01:05:34;6.80;98.10
58582;DHT22;44361;51.476;5.700;2023-04-15T01:08:01;6.80;97.80
58582;DHT22;44361;51.476;5.700;2023-04-15T01:10:26;6.80;97.70
58582;DHT22;44361;51.476;5.700;2023-04-15T01:12:52;6.80;97.80
58582;DHT22;44361;51.476;5.700;2023-04-15T01:15:19;6.70;97.90
58582;DHT22;44361;51.476;5.700;2023-04-15T01:17:45;6.70;98.30
58582;DHT22;44361;51.476;5.700;2023-04-15T01:20:10;6.70;98.00
58582;DHT22;44361;51.476;5.700;2023-04-15T01:22:37;6.70;98.00
58582;DHT22;44361;51.476;5.700;2023-04-15T01:25:11;6.70;98.20
58582;DHT22;44361;51.476;5.700;2023-04-15T01:27:38;6.60;98.30
58582;DHT22;44361;51.476;5.700;2023-04-15T01:30:06;6.50;98.30
58582;DHT22;44361;51.476;5.700;2023-04-15T01:32:32;6.50;98.50
58582;DHT22;44361;51.476;5.700;2023-04-15T01:34:57;6.40;98.90
58582;DHT22;44361;51.476;5.700;2023-04-15T01:37:23;6.40;98.90
58582;DHT22;44361;51.476;5.700;2023-04-15T01:39:49;6.40;99.10
58582;DHT22;44361;51.476;5.700;2023-04-15T01:42:15;6.40;99.30
58582;DHT22;44361;51.476;5.700;2023-04-15T01:44:41;6.30;99.70
58582;DHT22;44361;51.476;5.700;2023-04-15T01:47:06;6.30;99.70
58582;DHT22;44361;51.476;5.700;2023-04-15T01:49:32;6.30;99.80
58582;DHT22;44361;51.476;5.700;2023-04-15T01:51:58;6.30;99.90
58582;DHT22;44361;51.476;5.700;2023-04-15T01:54:25;6.20;99.90
58582;DHT22;44361;51.476;5.700;2023-04-15T01:56:50;6.30;99.90
58582;DHT22;44361;51.476;5.700;2023-04-15T01:59:16;6.20;99.90
58582;DHT22;44361;51.476;5.700;2023-04-15T02:01:42;6.30;99.90
58582;DHT22;44361;51.476;5.700;2023-04-15T02:04:08;6.30;99.90
58582;DHT22;44361;51.476;5.700;2023-04-15T02:06:41;6.30;99.90
58582;DHT22;44361;51.476;5.700;2023-04-15T02:09:07;6.30;99.90
58582;DHT22;44361;51.476;5.700;2023-04-15T02:11:32;6.30;99.90
58582;DHT22;44361;51.476;5.700;2023-04-15T02:13:59;6.30;99.90
58582;DHT22;44361;51.476;5.700;2023-04-15T02:16:25;6.30;99.90
58582;DHT22;44361;51.476;5.700;2023-04-15T02:18:50;6.30;99.90
58582;DHT22;44361;51.476;5.700;2023-04-15T02:21:16;6.20;99.90
58582;DHT22;44361;51.476;5.700;2023-04-15T02:23:43;6.20;99.90
58582;DHT22;44361;51.476;5.700;2023-04-15T02:26:09;6.20;99.90
58582;DHT22;44361;51.476;5.700;2023-04-15T02:28:34;6.10;99.90
58582;DHT22;44361;51.476;5.700;2023-04-15T02:31:07;6.00;99.90
58582;DHT22;44361;51.476;5.700;2023-04-15T02:33:34;6.00;99.90
58582;DHT22;44361;51.476;5.700;2023-04-15T02:35:59;6.00;99.90
58582;DHT22;44361;51.476;5.700;2023-04-15T02:38:25;6.00;99.90
58582;DHT22;44361;51.476;5.700;2023-04-15T02:40:51;5.90;99.90
58582;DHT22;44361;51.476;5.700;2023-04-15T02:43:16;5.90;99.90
58582;DHT22;44361;51.476;5.700;2023-04-15T02:45:43;6.00;99.90
58582;DHT22;44361;51.476;5.700;2023-04-15T02:48:09;5.90;99.90
58582;DHT22;44361;51.476;5.700;2023-04-15T02:50:35;5.90;99.90
58582;DHT22;44361;51.476;5.700;2023-04-15T02:53:03;5.90;99.90
58582;DHT22;44361;51.476;5.700;2023-04-15T02:55:30;5.90;99.90
58582;DHT22;44361;51.476;5.700;2023-04-15T02:57:55;5.80;99.90
58582;DHT22;44361;51.476;5.700;2023-04-15T03:00:22;5.80;99.90
58582;DHT22;44361;51.476;5.700;2023-04-15T03:02:49;5.70;99.90
58582;DHT22;44361;51.476;5.700;2023-04-15T03:05:20;5.70;99.90
58582;DHT22;44361;51.476;5.700;2023-04-15T03:07:50;5.70;99.90
58582;DHT22;44361;51.476;5.700;2023-04-15T03:10:15;5.60;99.90
58582;DHT22;44361;51.476;5.700;2023-04-15T03:12:41;5.60;99.90
58582;DHT22;44361;51.476;5.700;2023-04-15T03:15:07;5.60;99.90
58582;DHT22;44361;51.476;5.700;2023-04-15T03:17:33;5.50;99.90
58582;DHT22;44361;51.476;5.700;2023-04-15T03:20:00;5.50;99.90
58582;DHT22;44361;51.476;5.700;2023-04-15T03:22:25;5.40;99.90
58582;DHT22;44361;51.476;5.700;2023-04-15T03:24:51;5.40;99.90
58582;DHT22;44361;51.476;5.700;2023-04-15T03:27:16;5.30;99.90
58582;DHT22;44361;51.476;5.700;2023-04-15T03:29:42;5.30;99.90
58582;DHT22;44361;51.476;5.700;2023-04-15T03:32:08;5.30;99.90
58582;DHT22;44361;51.476;5.700;2023-04-15T03:34:33;5.20;99.90
58582;DHT22;44361;51.476;5.700;2023-04-15T03:36:59;5.10;99.90
58582;DHT22;44361;51.476;5.700;2023-04-15T03:39:24;5.10;99.90
58582;DHT22;44361;51.476;5.700;2023-04-15T03:41:50;5.10;99.90
58582;DHT22;44361;51.476;5.700;2023-04-15T03:44:15;5.10;99.90
58582;DHT22;44361;51.476;5.700;2023-04-15T03:46:41;5.10;99.90
58582;DHT22;44361;51.476;5.700;2023-04-15T03:49:07;5.10;99.90
58582;DHT22;44361;51.476;5.700;2023-04-15T03:51:33;5.10;99.90
58582;DHT22;44361;51.476;5.700;2023-04-15T03:53:59;5.10;99.90
58582;DHT22;44361;51.476;5.700;2023-04-15T03:56:24;5.10;99.90
58582;DHT22;44361;51.476;5.700;2023-04-15T03:58:50;5.10;99.90
58582;DHT22;44361;51.476;5.700;2023-04-15T04:01:16;5.20;99.90
58582;DHT22;44361;51.476;5.700;2023-04-15T04:03:41;5.10;99.90
58582;DHT22;44361;51.476;5.700;2023-04-15T04:06:07;5.10;99.90
58582;DHT22;44361;51.476;5.700;2023-04-15T04:08:32;5.00;99.90
58582;DHT22;44361;51.476;5.700;2023-04-15T04:10:58;5.00;99.90
58582;DHT22;44361;51.476;5.700;2023-04-15T04:13:24;5.00;99.90
58582;DHT22;44361;51.476;5.700;2023-04-15T04:15:49;5.00;99.90
58582;DHT22;44361;51.476;5.700;2023-04-15T04:18:15;4.90;99.90
58582;DHT22;44361;51.476;5.700;2023-04-15T04:20:40;4.90;99.90
58582;DHT22;44361;51.476;5.700;2023-04-15T04:23:06;4.90;99.90
58582;DHT22;44361;51.476;5.700;2023-04-15T04:25:32;4.90;99.90
58582;DHT22;44361;51.476;5.700;2023-04-15T04:27:58;4.90;99.90
58582;DHT22;44361;51.476;5.700;2023-04-15T04:30:23;4.90;99.90
58582;DHT22;44361;51.476;5.700;2023-04-15T04:32:49;4.80;99.90
58582;DHT22;44361;51.476;5.700;2023-04-15T04:35:15;4.80;99.90
58582;DHT22;44361;51.476;5.700;2023-04-15T04:37:41;4.80;99.90
58582;DHT22;44361;51.476;5.700;2023-04-15T04:40:07;4.80;99.90
58582;DHT22;44361;51.476;5.700;2023-04-15T04:42:33;4.80;99.90
58582;DHT22;44361;51.476;5.700;2023-04-15T04:44:59;4.80;99.90
58582;DHT22;44361;51.476;5.700;2023-04-15T04:47:25;4.80;99.90
58582;DHT22;44361;51.476;5.700;2023-04-15T04:49:50;4.70;99.90
58582;DHT22;44361;51.476;5.700;2023-04-15T04:52:16;4.70;99.90
58582;DHT22;44361;51.476;5.700;2023-04-15T04:54:41;4.70;99.90
58582;DHT22;44361;51.476;5.700;2023-04-15T04:57:07;4.70;99.90
58582;DHT22;44361;51.476;5.700;2023-04-15T04:59:32;4.70;99.90
58582;DHT22;44361;51.476;5.700;2023-04-15T05:01:58;4.70;99.90
58582;DHT22;44361;51.476;5.700;2023-04-15T05:04:24;4.70;99.90
58582;DHT22;44361;51.476;5.700;2023-04-15T05:06:50;4.80;99.90
58582;DHT22;44361;51.476;5.700;2023-04-15T05:09:16;4.90;99.90
58582;DHT22;44361;51.476;5.700;2023-04-15T05:11:41;4.90;99.90
58582;DHT22;44361;51.476;5.700;2023-04-15T05:14:07;5.10;99.90
58582;DHT22;44361;51.476;5.700;2023-04-15T05:16:32;5.20;99.90
58582;DHT22;44361;51.476;5.700;2023-04-15T05:18:58;5.30;99.90
58582;DHT22;44361;51.476;5.700;2023-04-15T05:21:23;5.30;99.90
58582;DHT22;44361;51.476;5.700;2023-04-15T05:23:50;5.50;99.90
58582;DHT22;44361;51.476;5.700;2023-04-15T05:26:15;5.50;99.90
58582;DHT22;44361;51.476;5.700;2023-04-15T05:28:41;5.80;99.90
58582;DHT22;44361;51.476;5.700;2023-04-15T05:31:07;6.00;99.90
58582;DHT22;44361;51.476;5.700;2023-04-15T05:33:33;6.40;99.90
58582;DHT22;44361;51.476;5.700;2023-04-15T05:35:58;6.50;99.90
58582;DHT22;44361;51.476;5.700;2023-04-15T05:38:24;6.70;99.90
58582;DHT22;44361;51.476;5.700;2023-04-15T05:40:49;6.70;99.90
58582;DHT22;44361;51.476;5.700;2023-04-15T05:43:15;6.70;99.90
58582;DHT22;44361;51.476;5.700;2023-04-15T05:45:41;6.60;99.90
58582;DHT22;44361;51.476;5.700;2023-04-15T05:48:06;6.50;99.90
58582;DHT22;44361;51.476;5.700;2023-04-15T05:50:32;6.40;99.90
58582;DHT22;44361;51.476;5.700;2023-04-15T05:52:58;6.30;99.90
58582;DHT22;44361;51.476;5.700;2023-04-15T05:55:23;6.30;99.90
58582;DHT22;44361;51.476;5.700;2023-04-15T05:57:49;6.30;99.90
58582;DHT22;44361;51.476;5.700;2023-04-15T06:00:15;6.40;99.90
58582;DHT22;44361;51.476;5.700;2023-04-15T06:02:40;6.50;99.90
58582;DHT22;44361;51.476;5.700;2023-04-15T06:05:06;6.60;99.90
58582;DHT22;44361;51.476;5.700;2023-04-15T06:07:36;6.70;99.90
58582;DHT22;44361;51.476;5.700;2023-04-15T06:10:03;6.80;99.90
58582;DHT22;44361;51.476;5.700;2023-04-15T06:12:30;6.90;99.90
58582;DHT22;44361;51.476;5.700;2023-04-15T06:14:55;7.00;99.90
58582;DHT22;44361;51.476;5.700;2023-04-15T06:17:21;7.10;99.90
58582;DHT22;44361;51.476;5.700;2023-04-15T06:19:46;7.10;99.90
58582;DHT22;44361;51.476;5.700;2023-04-15T06:22:12;7.10;99.90
58582;DHT22;44361;51.476;5.700;2023-04-15T06:24:37;7.00;99.90
58582;DHT22;44361;51.476;5.700;2023-04-15T06:27:03;7.00;99.90
58582;DHT22;44361;51.476;5.700;2023-04-15T06:29:29;7.00;99.90
58582;DHT22;44361;51.476;5.700;2023-04-15T06:31:54;7.10;99.90
58582;DHT22;44361;51.476;5.700;2023-04-15T06:34:21;7.10;99.90
58582;DHT22;44361;51.476;5.700;2023-04-15T06:36:46;7.10;99.90
58582;DHT22;44361;51.476;5.700;2023-04-15T06:39:12;7.10;99.90
58582;DHT22;44361;51.476;5.700;2023-04-15T06:41:38;7.10;99.90
58582;DHT22;44361;51.476;5.700;2023-04-15T06:44:03;7.10;99.90
58582;DHT22;44361;51.476;5.700;2023-04-15T06:46:29;7.20;99.90
58582;DHT22;44361;51.476;5.700;2023-04-15T06:48:55;7.30;99.90
58582;DHT22;44361;51.476;5.700;2023-04-15T06:51:21;7.30;99.90
58582;DHT22;44361;51.476;5.700;2023-04-15T06:53:48;7.40;99.90
58582;DHT22;44361;51.476;5.700;2023-04-15T06:56:13;7.50;99.90
58582;DHT22;44361;51.476;5.700;2023-04-15T06:58:39;7.60;99.90
58582;DHT22;44361;51.476;5.700;2023-04-15T07:01:04;7.70;99.90
58582;DHT22;44361;51.476;5.700;2023-04-15T07:03:30;7.80;99.90
58582;DHT22;44361;51.476;5.700;2023-04-15T07:05:56;8.00;99.90
58582;DHT22;44361;51.476;5.700;2023-04-15T07:08:23;8.00;99.90
58582;DHT22;44361;51.476;5.700;2023-04-15T07:10:48;8.20;99.90
58582;DHT22;44361;51.476;5.700;2023-04-15T07:13:15;8.40;99.90
58582;DHT22;44361;51.476;5.700;2023-04-15T07:15:40;8.60;99.90
58582;DHT22;44361;51.476;5.700;2023-04-15T07:18:06;8.80;99.90
58582;DHT22;44361;51.476;5.700;2023-04-15T07:20:32;9.00;99.90
58582;DHT22;44361;51.476;5.700;2023-04-15T07:22:57;9.20;99.90
58582;DHT22;44361;51.476;5.700;2023-04-15T07:25:23;9.10;99.90
58582;DHT22;44361;51.476;5.700;2023-04-15T07:27:48;9.20;99.90
58582;DHT22;44361;51.476;5.700;2023-04-15T07:30:14;9.30;99.90
58582;DHT22;44361;51.476;5.700;2023-04-15T07:32:41;9.40;99.90
58582;DHT22;44361;51.476;5.700;2023-04-15T07:35:07;9.50;99.90
58582;DHT22;44361;51.476;5.700;2023-04-15T07:37:32;9.80;99.90
58582;DHT22;44361;51.476;5.700;2023-04-15T07:39:58;9.90;99.90
58582;DHT22;44361;51.476;5.700;2023-04-15T07:42:23;9.90;99.90
58582;DHT22;44361;51.476;5.700;2023-04-15T07:44:49;9.90;99.90
58582;DHT22;44361;51.476;5.700;2023-04-15T07:47:16;10.10;99.90
58582;DHT22;44361;51.476;5.700;2023-04-15T07:49:41;10.30;99.90
58582;DHT22;44361;51.476;5.700;2023-04-15T07:52:08;10.40;99.90
58582;DHT22;44361;51.476;5.700;2023-04-15T07:54:34;10.70;99.90
58582;DHT22;44361;51.476;5.700;2023-04-15T07:56:59;10.80;99.90
58582;DHT22;44361;51.476;5.700;2023-04-15T07:59:28;10.50;99.90
58582;DHT22;44361;51.476;5.700;2023-04-15T08:01:54;10.40;99.90
58582;DHT22;44361;51.476;5.700;2023-04-15T08:04:20;10.50;99.90
58582;DHT22;44361;51.476;5.700;2023-04-15T08:06:45;10.80;99.90
58582;DHT22;44361;51.476;5.700;2023-04-15T08:09:12;11.00;99.90
58582;DHT22;44361;51.476;5.700;2023-04-15T08:11:48;11.10;99.70
58582;DHT22;44361;51.476;5.700;2023-04-15T08:14:17;11.10;99.00
58582;DHT22;44361;51.476;5.700;2023-04-15T08:16:42;11.10;99.00
58582;DHT22;44361;51.476;5.700;2023-04-15T08:19:08;11.20;98.10
58582;DHT22;44361;51.476;5.700;2023-04-15T08:21:34;11.50;99.20
58582;DHT22;44361;51.476;5.700;2023-04-15T08:23:59;11.60;97.80
58582;DHT22;44361;51.476;5.700;2023-04-15T08:26:25;11.70;98.60
58582;DHT22;44361;51.476;5.700;2023-04-15T08:28:51;11.70;96.60
58582;DHT22;44361;51.476;5.700;2023-04-15T08:31:18;11.50;96.80
58582;DHT22;44361;51.476;5.700;2023-04-15T08:33:43;11.40;96.50
58582;DHT22;44361;51.476;5.700;2023-04-15T08:36:09;11.40;96.70
58582;DHT22;44361;51.476;5.700;2023-04-15T08:38:40;11.30;95.80
58582;DHT22;44361;51.476;5.700;2023-04-15T08:41:11;11.00;96.10
58582;DHT22;44361;51.476;5.700;2023-04-15T08:43:51;11.10;97.00
58582;DHT22;44361;51.476;5.700;2023-04-15T08:46:21;11.00;96.50
58582;DHT22;44361;51.476;5.700;2023-04-15T08:48:47;11.10;97.30
58582;DHT22;44361;51.476;5.700;2023-04-15T08:51:13;11.30;96.60
58582;DHT22;44361;51.476;5.700;2023-04-15T08:53:42;11.50;96.00
58582;DHT22;44361;51.476;5.700;2023-04-15T08:56:08;11.60;96.20
58582;DHT22;44361;51.476;5.700;2023-04-15T08:58:35;11.70;95.40
58582;DHT22;44361;51.476;5.700;2023-04-15T09:01:02;11.80;95.50
58582;DHT22;44361;51.476;5.700;2023-04-15T09:03:27;11.80;95.10
58582;DHT22;44361;51.476;5.700;2023-04-15T09:05:53;11.80;94.60
58582;DHT22;44361;51.476;5.700;2023-04-15T09:08:19;11.60;94.50
58582;DHT22;44361;51.476;5.700;2023-04-15T09:10:45;11.70;95.00
58582;DHT22;44361;51.476;5.700;2023-04-15T09:13:11;12.20;95.80
58582;DHT22;44361;51.476;5.700;2023-04-15T09:15:37;12.20;94.30
58582;DHT22;44361;51.476;5.700;2023-04-15T09:18:03;12.10;94.10
58582;DHT22;44361;51.476;5.700;2023-04-15T09:20:29;12.20;94.40
58582;DHT22;44361;51.476;5.700;2023-04-15T09:22:54;12.30;93.90
58582;DHT22;44361;51.476;5.700;2023-04-15T09:27:50;12.30;93.50
58582;DHT22;44361;51.476;5.700;2023-04-15T09:30:16;12.20;92.40
58582;DHT22;44361;51.476;5.700;2023-04-15T09:35:18;12.20;93.40
58582;DHT22;44361;51.476;5.700;2023-04-15T09:37:44;12.50;93.20
58582;DHT22;44361;51.476;5.700;2023-04-15T09:40:10;12.70;93.00
58582;DHT22;44361;51.476;5.700;2023-04-15T09:42:36;12.70;92.10
58582;DHT22;44361;51.476;5.700;2023-04-15T09:45:18;12.70;91.90
58582;DHT22;44361;51.476;5.700;2023-04-15T09:47:44;12.40;91.50
58582;DHT22;44361;51.476;5.700;2023-04-15T09:50:09;12.40;91.40
58582;DHT22;44361;51.476;5.700;2023-04-15T09:52:41;12.50;91.50
58582;DHT22;44361;51.476;5.700;2023-04-15T09:55:07;12.40;92.40
58582;DHT22;44361;51.476;5.700;2023-04-15T09:57:34;12.30;92.50
58582;DHT22;44361;51.476;5.700;2023-04-15T10:00:04;12.80;91.70
58582;DHT22;44361;51.476;5.700;2023-04-15T10:02:31;12.60;91.80
58582;DHT22;44361;51.476;5.700;2023-04-15T10:04:56;12.80;91.40
58582;DHT22;44361;51.476;5.700;2023-04-15T10:07:22;12.70;91.70
58582;DHT22;44361;51.476;5.700;2023-04-15T10:09:48;12.70;91.40
58582;DHT22;44361;51.476;5.700;2023-04-15T10:12:16;12.90;92.70
58582;DHT22;44361;51.476;5.700;2023-04-15T10:14:42;13.10;90.70
58582;DHT22;44361;51.476;5.700;2023-04-15T10:17:10;13.00;91.20
58582;DHT22;44361;51.476;5.700;2023-04-15T10:19:39;12.60;91.20
58582;DHT22;44361;51.476;5.700;2023-04-15T10:22:05;12.40;90.20
58582;DHT22;44361;51.476;5.700;2023-04-15T10:24:32;12.50;90.60
58582;DHT22;44361;51.476;5.700;2023-04-15T10:26:59;12.40;91.20
58582;DHT22;44361;51.476;5.700;2023-04-15T10:29:25;12.70;89.10
58582;DHT22;44361;51.476;5.700;2023-04-15T10:31:54;12.80;88.80
58582;DHT22;44361;51.476;5.700;2023-04-15T10:34:21;13.00;89.00
58582;DHT22;44361;51.476;5.700;2023-04-15T10:36:48;13.00;89.50
58582;DHT22;44361;51.476;5.700;2023-04-15T10:42:34;13.10;90.10
58582;DHT22;44361;51.476;5.700;2023-04-15T10:44:59;13.20;90.10
58582;DHT22;44361;51.476;5.700;2023-04-15T10:47:25;13.10;87.90
58582;DHT22;44361;51.476;5.700;2023-04-15T10:49:58;13.10;86.90
58582;DHT22;44361;51.476;5.700;2023-04-15T10:52:27;13.00;84.80
58582;DHT22;44361;51.476;5.700;2023-04-15T10:55:02;13.00;85.10
58582;DHT22;44361;51.476;5.700;2023-04-15T10:57:34;13.20;86.20
58582;DHT22;44361;51.476;5.700;2023-04-15T11:00:12;13.40;85.70
58582;DHT22;44361;51.476;5.700;2023-04-15T11:02:42;13.50;87.30
58582;DHT22;44361;51.476;5.700;2023-04-15T11:05:47;13.40;84.80
58582;DHT22;44361;51.476;5.700;2023-04-15T11:07:57;13.50;84.50
58582;DHT22;44361;51.476;5.700;2023-04-15T11:13:00;13.30;85.90
58582;DHT22;44361;51.476;5.700;2023-04-15T11:15:40;13.30;83.80
58582;DHT22;44361;51.476;5.700;2023-04-15T11:18:10;13.30;84.30
58582;DHT22;44361;51.476;5.700;2023-04-15T11:20:37;13.50;84.80
58582;DHT22;44361;51.476;5.700;2023-04-15T11:23:04;13.60;84.00
58582;DHT22;44361;51.476;5.700;2023-04-15T11:25:31;13.60;84.60
58582;DHT22;44361;51.476;5.700;2023-04-15T11:27:59;14.00;87.40
58582;DHT22;44361;51.476;5.700;2023-04-15T11:30:26;14.30;83.40
58582;DHT22;44361;51.476;5.700;2023-04-15T11:32:57;14.40;85.70
58582;DHT22;44361;51.476;5.700;2023-04-15T11:35:23;14.10;85.50
58582;DHT22;44361;51.476;5.700;2023-04-15T11:37:49;14.00;87.30
58582;DHT22;44361;51.476;5.700;2023-04-15T11:40:15;13.80;86.50
58582;DHT22;44361;51.476;5.700;2023-04-15T11:42:43;13.60;87.10
58582;DHT22;44361;51.476;5.700;2023-04-15T11:45:13;13.70;85.80
58582;DHT22;44361;51.476;5.700;2023-04-15T11:47:40;13.70;84.10
58582;DHT22;44361;51.476;5.700;2023-04-15T11:50:17;13.60;86.80
58582;DHT22;44361;51.476;5.700;2023-04-15T11:52:56;13.80;84.80
58582;DHT22;44361;51.476;5.700;2023-04-15T11:55:22;14.00;83.70
58582;DHT22;44361;51.476;5.700;2023-04-15T11:57:50;14.00;84.80
58582;DHT22;44361;51.476;5.700;2023-04-15T12:00:16;13.80;84.40
58582;DHT22;44361;51.476;5.700;2023-04-15T12:02:42;13.70;84.70
58582;DHT22;44361;51.476;5.700;2023-04-15T12:05:08;14.20;84.90
58582;DHT22;44361;51.476;5.700;2023-04-15T12:07:56;14.40;85.60
58582;DHT22;44361;51.476;5.700;2023-04-15T12:10:23;14.50;84.30
58582;DHT22;44361;51.476;5.700;2023-04-15T12:12:51;14.40;81.10
58582;DHT22;44361;51.476;5.700;2023-04-15T12:15:21;14.20;83.00
58582;DHT22;44361;51.476;5.700;2023-04-15T12:17:47;14.60;81.70
58582;DHT22;44361;51.476;5.700;2023-04-15T12:20:12;15.00;84.20
58582;DHT22;44361;51.476;5.700;2023-04-15T12:22:38;15.10;81.20
58582;DHT22;44361;51.476;5.700;2023-04-15T12:25:04;15.10;79.80
58582;DHT22;44361;51.476;5.700;2023-04-15T12:27:30;14.60;81.20
58582;DHT22;44361;51.476;5.700;2023-04-15T12:30:06;14.60;82.50
58582;DHT22;44361;51.476;5.700;2023-04-15T12:32:34;14.50;83.00
58582;DHT22;44361;51.476;5.700;2023-04-15T12:35:00;14.50;81.70
58582;DHT22;44361;51.476;5.700;2023-04-15T12:37:26;14.70;80.30
58582;DHT22;44361;51.476;5.700;2023-04-15T12:39:52;14.80;79.10
58582;DHT22;44361;51.476;5.700;2023-04-15T12:42:18;15.00;79.70
58582;DHT22;44361;51.476;5.700;2023-04-15T12:44:44;14.90;79.80
58582;DHT22;44361;51.476;5.700;2023-04-15T12:47:11;14.60;81.90
58582;DHT22;44361;51.476;5.700;2023-04-15T12:49:37;14.60;82.20
58582;DHT22;44361;51.476;5.700;2023-04-15T12:52:03;14.70;83.00
58582;DHT22;44361;51.476;5.700;2023-04-15T12:54:30;15.00;83.20
58582;DHT22;44361;51.476;5.700;2023-04-15T12:56:57;15.10;78.40
58582;DHT22;44361;51.476;5.700;2023-04-15T12:59:23;15.10;78.10
58582;DHT22;44361;51.476;5.700;2023-04-15T13:01:49;15.30;78.60
58582;DHT22;44361;51.476;5.700;2023-04-15T13:04:16;15.20;79.30
58582;DHT22;44361;51.476;5.700;2023-04-15T13:06:42;14.90;79.60
58582;DHT22;44361;51.476;5.700;2023-04-15T13:09:08;14.70;80.90
58582;DHT22;44361;51.476;5.700;2023-04-15T13:11:34;15.20;80.40
58582;DHT22;44361;51.476;5.700;2023-04-15T13:14:02;15.20;79.90
58582;DHT22;44361;51.476;5.700;2023-04-15T13:16:27;14.80;78.90
58582;DHT22;44361;51.476;5.700;2023-04-15T13:18:53;14.70;83.20
58582;DHT22;44361;51.476;5.700;2023-04-15T13:21:19;14.90;78.20
58582;DHT22;44361;51.476;5.700;2023-04-15T13:23:44;14.50;78.30
58582;DHT22;44361;51.476;5.700;2023-04-15T13:26:10;14.50;80.90
58582;DHT22;44361;51.476;5.700;2023-04-15T13:28:35;14.70;78.90
58582;DHT22;44361;51.476;5.700;2023-04-15T13:31:01;14.80;79.70
58582;DHT22;44361;51.476;5.700;2023-04-15T13:33:27;14.80;80.20
58582;DHT22;44361;51.476;5.700;2023-04-15T13:35:52;14.80;78.50
58582;DHT22;44361;51.476;5.700;2023-04-15T13:38:18;14.90;77.90
58582;DHT22;44361;51.476;5.700;2023-04-15T13:40:43;15.10;78.40
58582;DHT22;44361;51.476;5.700;2023-04-15T13:43:09;15.10;77.40
58582;DHT22;44361;51.476;5.700;2023-04-15T13:45:35;15.20;78.50
58582;DHT22;44361;51.476;5.700;2023-04-15T13:48:01;15.50;74.70
58582;DHT22;44361;51.476;5.700;2023-04-15T13:50:27;15.30;76.60
58582;DHT22;44361;51.476;5.700;2023-04-15T13:52:53;15.50;76.40
58582;DHT22;44361;51.476;5.700;2023-04-15T13:55:18;15.00;77.70
58582;DHT22;44361;51.476;5.700;2023-04-15T13:57:44;15.20;77.90
58582;DHT22;44361;51.476;5.700;2023-04-15T14:00:10;15.60;78.10
58582;DHT22;44361;51.476;5.700;2023-04-15T14:02:36;15.70;77.70
58582;DHT22;44361;51.476;5.700;2023-04-15T14:05:02;15.40;78.30
58582;DHT22;44361;51.476;5.700;2023-04-15T14:07:28;15.50;78.60
58582;DHT22;44361;51.476;5.700;2023-04-15T14:09:55;15.80;77.50
58582;DHT22;44361;51.476;5.700;2023-04-15T14:12:21;15.50;76.40
58582;DHT22;44361;51.476;5.700;2023-04-15T14:14:46;15.30;77.70
58582;DHT22;44361;51.476;5.700;2023-04-15T14:17:12;14.80;80.00
58582;DHT22;44361;51.476;5.700;2023-04-15T14:19:37;14.60;79.50
58582;DHT22;44361;51.476;5.700;2023-04-15T14:22:03;14.70;78.20
58582;DHT22;44361;51.476;5.700;2023-04-15T14:24:29;14.80;79.30
58582;DHT22;44361;51.476;5.700;2023-04-15T14:26:54;14.70;79.30
58582;DHT22;44361;51.476;5.700;2023-04-15T14:29:21;14.70;79.10
58582;DHT22;44361;51.476;5.700;2023-04-15T14:31:47;14.80;79.40
58582;DHT22;44361;51.476;5.700;2023-04-15T14:34:14;14.60;77.50
58582;DHT22;44361;51.476;5.700;2023-04-15T14:36:40;14.40;79.40
58582;DHT22;44361;51.476;5.700;2023-04-15T14:39:06;14.50;80.00
58582;DHT22;44361;51.476;5.700;2023-04-15T14:41:33;14.70;80.40
58582;DHT22;44361;51.476;5.700;2023-04-15T14:43:58;14.90;79.50
58582;DHT22;44361;51.476;5.700;2023-04-15T14:46:24;14.60;77.30
58582;DHT22;44361;51.476;5.700;2023-04-15T14:48:50;14.60;78.40
58582;DHT22;44361;51.476;5.700;2023-04-15T14:51:16;14.50;78.00
58582;DHT22;44361;51.476;5.700;2023-04-15T14:53:41;14.50;78.60
58582;DHT22;44361;51.476;5.700;2023-04-15T14:56:08;14.20;79.90
58582;DHT22;44361;51.476;5.700;2023-04-15T14:58:34;14.50;80.60
58582;DHT22;44361;51.476;5.700;2023-04-15T15:00:59;14.40;78.30
58582;DHT22;44361;51.476;5.700;2023-04-15T15:03:27;14.30;78.20
58582;DHT22;44361;51.476;5.700;2023-04-15T15:05:52;14.20;79.50
58582;DHT22;44361;51.476;5.700;2023-04-15T15:08:18;14.10;81.30
58582;DHT22;44361;51.476;5.700;2023-04-15T15:10:43;13.70;80.30
58582;DHT22;44361;51.476;5.700;2023-04-15T15:13:09;13.40;80.70
58582;DHT22;44361;51.476;5.700;2023-04-15T15:15:36;13.40;81.50
58582;DHT22;44361;51.476;5.700;2023-04-15T15:18:02;13.40;81.50
58582;DHT22;44361;51.476;5.700;2023-04-15T15:20:28;13.30;80.80
58582;DHT22;44361;51.476;5.700;2023-04-15T15:22:54;13.40;81.50
58582;DHT22;44361;51.476;5.700;2023-04-15T15:25:20;13.50;81.90
58582;DHT22;44361;51.476;5.700;2023-04-15T15:27:46;13.50;83.80
58582;DHT22;44361;51.476;5.700;2023-04-15T15:30:12;13.50;83.00
58582;DHT22;44361;51.476;5.700;2023-04-15T15:32:41;13.50;83.70
58582;DHT22;44361;51.476;5.700;2023-04-15T15:35:08;13.50;84.70
58582;DHT22;44361;51.476;5.700;2023-04-15T15:37:34;13.50;84.70
58582;DHT22;44361;51.476;5.700;2023-04-15T15:40:00;13.20;84.80
58582;DHT22;44361;51.476;5.700;2023-04-15T15:42:26;13.20;86.60
58582;DHT22;44361;51.476;5.700;2023-04-15T15:44:55;13.00;87.80